KVKS/VKS METAR and TAF weather

Enter ICAO airport designator
Station Type Date Time Source
KVKS METAR 2019/05/21 20:55 UTC NOAA

KVKS 212055Z AUTO 19012G19KT 10SM FEW065 32/19 A2978 RMK A01


Station Type Date Time Source
KVKS Decoded METAR 2019/05/21 20:55 UTC NOAA

Vicksburg Municipal, MS, United States (KVKS) 32-14N 090-56W
May 21, 2019 - 04:55 PM EDT / 2019.05.21 2055 UTC
Wind: from the S (190 degrees) at 14 MPH (12 KT) gusting to 22 MPH (19 KT):0
Visibility: 10 mile(s):0
Sky conditions: mostly clear
Temperature: 89 F (32 C)
Dew Point: 66 F (19 C)
Relative Humidity: 46%
Pressure (altimeter): 29.78 in. Hg (1008 hPa)
ob: KVKS 212055Z AUTO 19012G19KT 10SM FEW065 32/19 A2978 RMK A01
cycle: 21

Station Type Date Time Source
KVKS TAF UTC NOAA

Error!

Example: see airport list